sensor_id;sensor_type;location;lat;lon;timestamp;temperature;humidity
22968;DHT22;11650;48.106;-1.696;2023-03-01T01:42:28;0.30;99.90
22968;DHT22;11650;48.106;-1.696;2023-03-01T01:48:02;0.30;99.90
22968;DHT22;11650;48.106;-1.696;2023-03-01T01:50:29;0.30;99.90
22968;DHT22;11650;48.106;-1.696;2023-03-01T01:53:15;0.30;99.90
22968;DHT22;11650;48.106;-1.696;2023-03-01T01:56:05;0.30;99.90
22968;DHT22;11650;48.106;-1.696;2023-03-01T01:58:32;0.30;99.90
22968;DHT22;11650;48.106;-1.696;2023-03-01T02:00:58;0.30;99.90
22968;DHT22;11650;48.106;-1.696;2023-03-01T02:03:29;0.30;99.90
22968;DHT22;11650;48.106;-1.696;2023-03-01T02:06:31;0.30;99.90
22968;DHT22;11650;48.106;-1.696;2023-03-01T02:09:00;0.30;99.90
22968;DHT22;11650;48.106;-1.696;2023-03-01T02:11:30;0.30;99.90
22968;DHT22;11650;48.106;-1.696;2023-03-01T02:13:56;0.30;99.90
22968;DHT22;11650;48.106;-1.696;2023-03-01T02:16:22;0.30;99.90
22968;DHT22;11650;48.106;-1.696;2023-03-01T02:18:47;0.30;99.90
22968;DHT22;11650;48.106;-1.696;2023-03-01T02:21:43;0.20;99.90
22968;DHT22;11650;48.106;-1.696;2023-03-01T02:26:54;0.30;99.90
22968;DHT22;11650;48.106;-1.696;2023-03-01T02:29:22;0.20;99.90
22968;DHT22;11650;48.106;-1.696;2023-03-01T02:31:49;0.20;99.90
22968;DHT22;11650;48.106;-1.696;2023-03-01T02:34:20;0.20;99.90
22968;DHT22;11650;48.106;-1.696;2023-03-01T02:36:54;0.20;99.90
22968;DHT22;11650;48.106;-1.696;2023-03-01T02:39:27;0.20;99.90
22968;DHT22;11650;48.106;-1.696;2023-03-01T02:41:55;0.20;99.90
22968;DHT22;11650;48.106;-1.696;2023-03-01T02:44:21;0.20;99.90
22968;DHT22;11650;48.106;-1.696;2023-03-01T02:46:49;0.20;99.90
22968;DHT22;11650;48.106;-1.696;2023-03-01T02:49:19;0.20;99.90
22968;DHT22;11650;48.106;-1.696;2023-03-01T02:54:29;0.10;99.90
22968;DHT22;11650;48.106;-1.696;2023-03-01T02:56:57;0.10;99.90
22968;DHT22;11650;48.106;-1.696;2023-03-01T02:59:28;0.10;99.90
22968;DHT22;11650;48.106;-1.696;2023-03-01T03:01:54;0.00;99.90
22968;DHT22;11650;48.106;-1.696;2023-03-01T03:04:20;0.00;99.90
22968;DHT22;11650;48.106;-1.696;2023-03-01T03:06:47;0.00;99.90
22968;DHT22;11650;48.106;-1.696;2023-03-01T03:09:14;0.00;99.90
22968;DHT22;11650;48.106;-1.696;2023-03-01T03:11:40;0.00;99.90
22968;DHT22;11650;48.106;-1.696;2023-03-01T03:14:08;0.00;99.90
22968;DHT22;11650;48.106;-1.696;2023-03-01T03:16:43;0.00;99.90
22968;DHT22;11650;48.106;-1.696;2023-03-01T03:19:09;-0.10;99.90
22968;DHT22;11650;48.106;-1.696;2023-03-01T03:21:35;-0.10;99.90
22968;DHT22;11650;48.106;-1.696;2023-03-01T03:24:01;-0.10;99.90
22968;DHT22;11650;48.106;-1.696;2023-03-01T03:26:27;-0.10;99.90
22968;DHT22;11650;48.106;-1.696;2023-03-01T03:28:53;-0.20;99.90
22968;DHT22;11650;48.106;-1.696;2023-03-01T03:31:18;-0.20;99.90
22968;DHT22;11650;48.106;-1.696;2023-03-01T03:33:44;-0.20;99.90
22968;DHT22;11650;48.106;-1.696;2023-03-01T03:36:21;-0.20;99.90
22968;DHT22;11650;48.106;-1.696;2023-03-01T03:38:47;-0.30;99.90
22968;DHT22;11650;48.106;-1.696;2023-03-01T03:41:14;-0.30;99.90
22968;DHT22;11650;48.106;-1.696;2023-03-01T03:43:41;-0.30;99.90
22968;DHT22;11650;48.106;-1.696;2023-03-01T03:46:09;-0.30;99.90
22968;DHT22;11650;48.106;-1.696;2023-03-01T03:48:40;-0.30;99.90
22968;DHT22;11650;48.106;-1.696;2023-03-01T03:51:06;-0.30;99.90
22968;DHT22;11650;48.106;-1.696;2023-03-01T03:53:35;-0.40;99.90
22968;DHT22;11650;48.106;-1.696;2023-03-01T03:56:00;-0.40;99.90
22968;DHT22;11650;48.106;-1.696;2023-03-01T03:58:26;-0.40;99.90
22968;DHT22;11650;48.106;-1.696;2023-03-01T04:00:55;-0.40;99.90
22968;DHT22;11650;48.106;-1.696;2023-03-01T04:03:25;-0.40;99.90
22968;DHT22;11650;48.106;-1.696;2023-03-01T04:05:51;-0.50;99.90
22968;DHT22;11650;48.106;-1.696;2023-03-01T04:08:19;-0.40;99.90
22968;DHT22;11650;48.106;-1.696;2023-03-01T04:10:48;-0.50;99.90
22968;DHT22;11650;48.106;-1.696;2023-03-01T04:13:17;-0.50;99.90
22968;DHT22;11650;48.106;-1.696;2023-03-01T04:15:54;-0.50;99.90
22968;DHT22;11650;48.106;-1.696;2023-03-01T04:18:21;-0.50;99.90
22968;DHT22;11650;48.106;-1.696;2023-03-01T04:20:47;-0.50;99.90
22968;DHT22;11650;48.106;-1.696;2023-03-01T04:23:16;-0.50;99.90
22968;DHT22;11650;48.106;-1.696;2023-03-01T04:25:46;-0.50;99.90
22968;DHT22;11650;48.106;-1.696;2023-03-01T04:28:15;-0.50;99.90
22968;DHT22;11650;48.106;-1.696;2023-03-01T04:30:41;-0.50;99.90
22968;DHT22;11650;48.106;-1.696;2023-03-01T04:33:08;-0.60;99.90
22968;DHT22;11650;48.106;-1.696;2023-03-01T04:35:35;-0.50;99.90
22968;DHT22;11650;48.106;-1.696;2023-03-01T04:38:02;-0.50;99.90
22968;DHT22;11650;48.106;-1.696;2023-03-01T04:40:28;-0.50;99.90
22968;DHT22;11650;48.106;-1.696;2023-03-01T04:42:53;-0.60;99.90
22968;DHT22;11650;48.106;-1.696;2023-03-01T04:45:19;-0.60;99.90
22968;DHT22;11650;48.106;-1.696;2023-03-01T04:47:45;-0.60;99.90
22968;DHT22;11650;48.106;-1.696;2023-03-01T04:50:14;-0.60;99.90
22968;DHT22;11650;48.106;-1.696;2023-03-01T04:52:40;-0.70;99.90
22968;DHT22;11650;48.106;-1.696;2023-03-01T04:55:07;-0.70;99.90
22968;DHT22;11650;48.106;-1.696;2023-03-01T04:57:33;-0.70;99.90
22968;DHT22;11650;48.106;-1.696;2023-03-01T04:59:59;-0.70;99.90
22968;DHT22;11650;48.106;-1.696;2023-03-01T05:02:24;-0.70;99.90
22968;DHT22;11650;48.106;-1.696;2023-03-01T05:04:50;-0.70;99.90
22968;DHT22;11650;48.106;-1.696;2023-03-01T05:07:16;-0.70;99.90
22968;DHT22;11650;48.106;-1.696;2023-03-01T05:09:46;-0.70;99.90
22968;DHT22;11650;48.106;-1.696;2023-03-01T05:12:12;-0.70;99.90
22968;DHT22;11650;48.106;-1.696;2023-03-01T05:14:38;-0.70;99.90
22968;DHT22;11650;48.106;-1.696;2023-03-01T05:17:04;-0.70;99.90
22968;DHT22;11650;48.106;-1.696;2023-03-01T05:19:30;-0.70;99.90
22968;DHT22;11650;48.106;-1.696;2023-03-01T05:21:57;-0.70;99.90
22968;DHT22;11650;48.106;-1.696;2023-03-01T05:24:31;-0.70;99.90
22968;DHT22;11650;48.106;-1.696;2023-03-01T05:26:57;-0.60;99.90
22968;DHT22;11650;48.106;-1.696;2023-03-01T05:29:24;-0.60;99.90
22968;DHT22;11650;48.106;-1.696;2023-03-01T05:32:00;-0.60;99.90
22968;DHT22;11650;48.106;-1.696;2023-03-01T05:34:29;-0.50;99.90
22968;DHT22;11650;48.106;-1.696;2023-03-01T05:36:55;-0.60;99.90
22968;DHT22;11650;48.106;-1.696;2023-03-01T05:39:22;-0.50;99.90
22968;DHT22;11650;48.106;-1.696;2023-03-01T05:41:52;-0.50;99.90
22968;DHT22;11650;48.106;-1.696;2023-03-01T05:44:18;-0.50;99.90
22968;DHT22;11650;48.106;-1.696;2023-03-01T05:46:43;-0.50;99.90
22968;DHT22;11650;48.106;-1.696;2023-03-01T05:49:10;-0.50;99.90
22968;DHT22;11650;48.106;-1.696;2023-03-01T05:51:36;-0.50;99.90
22968;DHT22;11650;48.106;-1.696;2023-03-01T05:54:02;-0.50;99.90
22968;DHT22;11650;48.106;-1.696;2023-03-01T05:56:27;-0.50;99.90
22968;DHT22;11650;48.106;-1.696;2023-03-01T05:58:54;-0.50;99.90
22968;DHT22;11650;48.106;-1.696;2023-03-01T06:01:20;-0.50;99.90
22968;DHT22;11650;48.106;-1.696;2023-03-01T06:03:45;-0.60;99.90
22968;DHT22;11650;48.106;-1.696;2023-03-01T06:06:11;-0.60;99.90
22968;DHT22;11650;48.106;-1.696;2023-03-01T06:08:36;-0.60;99.90
22968;DHT22;11650;48.106;-1.696;2023-03-01T06:11:02;-0.60;99.90
22968;DHT22;11650;48.106;-1.696;2023-03-01T06:13:28;-0.60;99.90
22968;DHT22;11650;48.106;-1.696;2023-03-01T06:15:54;-0.60;99.90
22968;DHT22;11650;48.106;-1.696;2023-03-01T06:18:19;-0.60;99.90
22968;DHT22;11650;48.106;-1.696;2023-03-01T06:20:45;-0.60;99.90
22968;DHT22;11650;48.106;-1.696;2023-03-01T06:23:17;-0.60;99.90
22968;DHT22;11650;48.106;-1.696;2023-03-01T06:25:43;-0.50;99.90
22968;DHT22;11650;48.106;-1.696;2023-03-01T06:28:08;-0.50;99.90
22968;DHT22;11650;48.106;-1.696;2023-03-01T06:30:34;-0.50;99.90
22968;DHT22;11650;48.106;-1.696;2023-03-01T06:33:00;-0.50;99.90
22968;DHT22;11650;48.106;-1.696;2023-03-01T06:35:26;-0.50;99.90
22968;DHT22;11650;48.106;-1.696;2023-03-01T06:37:55;-0.50;99.90
22968;DHT22;11650;48.106;-1.696;2023-03-01T06:40:21;-0.50;99.90
22968;DHT22;11650;48.106;-1.696;2023-03-01T06:42:49;-0.50;99.90
22968;DHT22;11650;48.106;-1.696;2023-03-01T06:45:15;-0.60;99.90
22968;DHT22;11650;48.106;-1.696;2023-03-01T06:47:41;-0.60;99.90
22968;DHT22;11650;48.106;-1.696;2023-03-01T06:50:07;-0.60;99.90
22968;DHT22;11650;48.106;-1.696;2023-03-01T06:52:33;-0.50;99.90
22968;DHT22;11650;48.106;-1.696;2023-03-01T06:54:59;-0.60;99.90
22968;DHT22;11650;48.106;-1.696;2023-03-01T06:57:25;-0.50;99.90
22968;DHT22;11650;48.106;-1.696;2023-03-01T06:59:51;-0.60;99.90
22968;DHT22;11650;48.106;-1.696;2023-03-01T07:02:17;-0.50;99.90
22968;DHT22;11650;48.106;-1.696;2023-03-01T07:04:42;-0.50;99.90
22968;DHT22;11650;48.106;-1.696;2023-03-01T07:07:09;-0.50;99.90
22968;DHT22;11650;48.106;-1.696;2023-03-01T07:09:34;-0.50;99.90
22968;DHT22;11650;48.106;-1.696;2023-03-01T07:12:00;-0.50;99.90
22968;DHT22;11650;48.106;-1.696;2023-03-01T07:14:26;-0.50;99.90
22968;DHT22;11650;48.106;-1.696;2023-03-01T07:16:53;-0.50;99.90
22968;DHT22;11650;48.106;-1.696;2023-03-01T07:19:19;-0.40;99.90
22968;DHT22;11650;48.106;-1.696;2023-03-01T07:21:45;-0.40;99.90
22968;DHT22;11650;48.106;-1.696;2023-03-01T07:24:11;-0.40;99.90
22968;DHT22;11650;48.106;-1.696;2023-03-01T07:26:37;-0.40;99.90
22968;DHT22;11650;48.106;-1.696;2023-03-01T07:29:04;-0.40;99.90
22968;DHT22;11650;48.106;-1.696;2023-03-01T07:31:30;-0.30;99.90
22968;DHT22;11650;48.106;-1.696;2023-03-01T07:33:56;-0.30;99.90
22968;DHT22;11650;48.106;-1.696;2023-03-01T07:36:23;-0.30;99.90
22968;DHT22;11650;48.106;-1.696;2023-03-01T07:38:48;-0.20;99.90
22968;DHT22;11650;48.106;-1.696;2023-03-01T07:41:14;-0.30;99.90
22968;DHT22;11650;48.106;-1.696;2023-03-01T07:43:40;-0.20;99.90
22968;DHT22;11650;48.106;-1.696;2023-03-01T07:46:06;-0.10;99.90
22968;DHT22;11650;48.106;-1.696;2023-03-01T07:48:32;-0.10;99.90
22968;DHT22;11650;48.106;-1.696;2023-03-01T07:51:03;0.00;99.90
22968;DHT22;11650;48.106;-1.696;2023-03-01T07:53:28;0.10;99.90
22968;DHT22;11650;48.106;-1.696;2023-03-01T07:56:12;0.20;99.90
22968;DHT22;11650;48.106;-1.696;2023-03-01T07:58:40;0.20;99.90
22968;DHT22;11650;48.106;-1.696;2023-03-01T08:01:08;0.30;99.90
22968;DHT22;11650;48.106;-1.696;2023-03-01T08:03:34;0.30;99.90
22968;DHT22;11650;48.106;-1.696;2023-03-01T08:06:01;0.40;99.90
22968;DHT22;11650;48.106;-1.696;2023-03-01T08:08:27;0.50;99.90
22968;DHT22;11650;48.106;-1.696;2023-03-01T08:10:56;0.50;99.90
22968;DHT22;11650;48.106;-1.696;2023-03-01T08:13:22;0.50;99.90
22968;DHT22;11650;48.106;-1.696;2023-03-01T08:15:51;0.60;99.90
22968;DHT22;11650;48.106;-1.696;2023-03-01T08:18:18;0.60;99.90
22968;DHT22;11650;48.106;-1.696;2023-03-01T08:20:44;0.70;99.90
22968;DHT22;11650;48.106;-1.696;2023-03-01T08:23:10;0.80;99.90
22968;DHT22;11650;48.106;-1.696;2023-03-01T08:25:36;0.80;99.90
22968;DHT22;11650;48.106;-1.696;2023-03-01T08:28:02;0.90;99.90
22968;DHT22;11650;48.106;-1.696;2023-03-01T08:30:28;0.90;99.90
22968;DHT22;11650;48.106;-1.696;2023-03-01T08:32:54;1.10;99.90
22968;DHT22;11650;48.106;-1.696;2023-03-01T08:35:20;1.10;99.90
22968;DHT22;11650;48.106;-1.696;2023-03-01T08:37:46;1.10;99.90
22968;DHT22;11650;48.106;-1.696;2023-03-01T08:40:12;1.30;99.90
22968;DHT22;11650;48.106;-1.696;2023-03-01T08:42:40;1.30;99.90
22968;DHT22;11650;48.106;-1.696;2023-03-01T08:45:07;1.40;99.90
22968;DHT22;11650;48.106;-1.696;2023-03-01T08:47:33;1.50;99.90
22968;DHT22;11650;48.106;-1.696;2023-03-01T08:49:59;1.60;99.90
22968;DHT22;11650;48.106;-1.696;2023-03-01T08:52:26;1.70;99.90
22968;DHT22;11650;48.106;-1.696;2023-03-01T08:54:52;1.80;99.90
22968;DHT22;11650;48.106;-1.696;2023-03-01T08:57:18;1.90;99.90
22968;DHT22;11650;48.106;-1.696;2023-03-01T08:59:43;1.90;99.90
22968;DHT22;11650;48.106;-1.696;2023-03-01T09:02:14;2.00;99.90
22968;DHT22;11650;48.106;-1.696;2023-03-01T09:04:41;2.00;99.90
22968;DHT22;11650;48.106;-1.696;2023-03-01T09:07:07;2.10;99.90
22968;DHT22;11650;48.106;-1.696;2023-03-01T09:09:33;2.30;99.90
22968;DHT22;11650;48.106;-1.696;2023-03-01T09:11:59;2.40;99.90
22968;DHT22;11650;48.106;-1.696;2023-03-01T09:14:24;2.40;99.90
22968;DHT22;11650;48.106;-1.696;2023-03-01T09:16:50;2.50;99.90
22968;DHT22;11650;48.106;-1.696;2023-03-01T09:19:16;2.50;99.90
22968;DHT22;11650;48.106;-1.696;2023-03-01T09:21:42;2.70;99.90
22968;DHT22;11650;48.106;-1.696;2023-03-01T09:24:18;2.60;99.90
22968;DHT22;11650;48.106;-1.696;2023-03-01T09:26:44;2.70;99.90
22968;DHT22;11650;48.106;-1.696;2023-03-01T09:29:14;2.70;99.90
22968;DHT22;11650;48.106;-1.696;2023-03-01T09:31:40;2.70;99.90
22968;DHT22;11650;48.106;-1.696;2023-03-01T09:34:06;2.90;99.90
22968;DHT22;11650;48.106;-1.696;2023-03-01T09:36:32;3.00;99.90
22968;DHT22;11650;48.106;-1.696;2023-03-01T09:38:58;3.10;99.90
22968;DHT22;11650;48.106;-1.696;2023-03-01T09:44:32;3.30;99.90
22968;DHT22;11650;48.106;-1.696;2023-03-01T09:47:00;3.30;99.90
22968;DHT22;11650;48.106;-1.696;2023-03-01T09:49:29;3.30;99.90
22968;DHT22;11650;48.106;-1.696;2023-03-01T09:54:30;3.40;99.90
22968;DHT22;11650;48.106;-1.696;2023-03-01T09:56:59;3.50;99.90
22968;DHT22;11650;48.106;-1.696;2023-03-01T10:02:21;3.80;99.90
22968;DHT22;11650;48.106;-1.696;2023-03-01T10:04:49;3.90;99.90
22968;DHT22;11650;48.106;-1.696;2023-03-01T10:10:01;4.10;99.90
22968;DHT22;11650;48.106;-1.696;2023-03-01T10:12:35;4.10;99.90
22968;DHT22;11650;48.106;-1.696;2023-03-01T10:15:16;3.90;99.90
22968;DHT22;11650;48.106;-1.696;2023-03-01T10:18:00;3.90;99.90
22968;DHT22;11650;48.106;-1.696;2023-03-01T10:20:55;3.80;99.90
22968;DHT22;11650;48.106;-1.696;2023-03-01T10:23:26;4.00;99.90
22968;DHT22;11650;48.106;-1.696;2023-03-01T10:31:43;4.40;99.90
22968;DHT22;11650;48.106;-1.696;2023-03-01T10:34:28;4.40;99.90
22968;DHT22;11650;48.106;-1.696;2023-03-01T10:36:58;4.50;99.90
22968;DHT22;11650;48.106;-1.696;2023-03-01T10:39:26;4.50;99.90
22968;DHT22;11650;48.106;-1.696;2023-03-01T10:42:04;4.70;99.90
22968;DHT22;11650;48.106;-1.696;2023-03-01T10:44:36;4.70;99.90
22968;DHT22;11650;48.106;-1.696;2023-03-01T10:47:02;4.60;99.90
22968;DHT22;11650;48.106;-1.696;2023-03-01T10:49:29;4.80;99.90
22968;DHT22;11650;48.106;-1.696;2023-03-01T10:51:55;5.00;99.90
22968;DHT22;11650;48.106;-1.696;2023-03-01T10:54:22;5.10;99.90
22968;DHT22;11650;48.106;-1.696;2023-03-01T10:56:52;5.20;99.90
22968;DHT22;11650;48.106;-1.696;2023-03-01T11:02:16;5.20;99.90
22968;DHT22;11650;48.106;-1.696;2023-03-01T11:05:24;5.30;99.90
22968;DHT22;11650;48.106;-1.696;2023-03-01T11:07:58;5.50;99.90
22968;DHT22;11650;48.106;-1.696;2023-03-01T11:10:35;5.50;99.90
22968;DHT22;11650;48.106;-1.696;2023-03-01T11:13:14;5.60;99.90
22968;DHT22;11650;48.106;-1.696;2023-03-01T11:15:40;5.50;99.90
22968;DHT22;11650;48.106;-1.696;2023-03-01T11:18:19;5.40;99.90
22968;DHT22;11650;48.106;-1.696;2023-03-01T11:20:45;5.60;99.90
22968;DHT22;11650;48.106;-1.696;2023-03-01T11:23:12;5.80;99.90
22968;DHT22;11650;48.106;-1.696;2023-03-01T11:25:54;5.60;99.90
22968;DHT22;11650;48.106;-1.696;2023-03-01T11:28:21;5.90;99.90
22968;DHT22;11650;48.106;-1.696;2023-03-01T11:31:02;6.10;99.90
22968;DHT22;11650;48.106;-1.696;2023-03-01T11:33:58;6.00;99.90
22968;DHT22;11650;48.106;-1.696;2023-03-01T11:36:46;6.20;99.90
22968;DHT22;11650;48.106;-1.696;2023-03-01T11:42:15;6.20;99.90
22968;DHT22;11650;48.106;-1.696;2023-03-01T11:44:43;6.40;99.90
22968;DHT22;11650;48.106;-1.696;2023-03-01T11:47:38;6.60;99.90
22968;DHT22;11650;48.106;-1.696;2023-03-01T11:53:33;6.80;99.90
22968;DHT22;11650;48.106;-1.696;2023-03-01T11:56:08;6.80;99.90
22968;DHT22;11650;48.106;-1.696;2023-03-01T12:01:38;7.10;99.90
22968;DHT22;11650;48.106;-1.696;2023-03-01T12:07:01;7.20;99.90
22968;DHT22;11650;48.106;-1.696;2023-03-01T12:26:44;7.60;99.90
22968;DHT22;11650;48.106;-1.696;2023-03-01T12:29:34;7.80;99.90
22968;DHT22;11650;48.106;-1.696;2023-03-01T12:40:10;8.50;99.90
22968;DHT22;11650;48.106;-1.696;2023-03-01T12:43:05;8.40;99.90
22968;DHT22;11650;48.106;-1.696;2023-03-01T12:51:01;8.90;99.90
22968;DHT22;11650;48.106;-1.696;2023-03-01T12:53:35;8.80;99.90
22968;DHT22;11650;48.106;-1.696;2023-03-01T12:56:23;9.00;99.90
22968;DHT22;11650;48.106;-1.696;2023-03-01T13:02:05;10.00;99.90
22968;DHT22;11650;48.106;-1.696;2023-03-01T13:07:44;11.10;99.90
22968;DHT22;11650;48.106;-1.696;2023-03-01T13:10:31;11.60;99.90
22968;DHT22;11650;48.106;-1.696;2023-03-01T13:13:12;11.80;99.90
22968;DHT22;11650;48.106;-1.696;2023-03-01T13:15:38;11.50;99.90
22968;DHT22;11650;48.106;-1.696;2023-03-01T13:20:46;12.30;99.90
22968;DHT22;11650;48.106;-1.696;2023-03-01T13:26:06;12.70;99.90
22968;DHT22;11650;48.106;-1.696;2023-03-01T13:39:03;12.50;99.90
22968;DHT22;11650;48.106;-1.696;2023-03-01T13:46:52;13.00;99.90
22968;DHT22;11650;48.106;-1.696;2023-03-01T13:49:21;13.70;99.90
22968;DHT22;11650;48.106;-1.696;2023-03-01T13:51:48;13.40;99.90
22968;DHT22;11650;48.106;-1.696;2023-03-01T13:54:16;13.00;99.90
22968;DHT22;11650;48.106;-1.696;2023-03-01T13:56:43;13.30;99.90
22968;DHT22;11650;48.106;-1.696;2023-03-01T13:59:20;13.70;99.90
22968;DHT22;11650;48.106;-1.696;2023-03-01T14:02:01;13.80;99.90
22968;DHT22;11650;48.106;-1.696;2023-03-01T14:04:28;13.90;99.90
22968;DHT22;11650;48.106;-1.696;2023-03-01T14:07:19;15.10;99.90
22968;DHT22;11650;48.106;-1.696;2023-03-01T14:09:49;15.00;99.90
22968;DHT22;11650;48.106;-1.696;2023-03-01T14:12:30;14.80;99.90
22968;DHT22;11650;48.106;-1.696;2023-03-01T14:20:20;14.30;99.90
22968;DHT22;11650;48.106;-1.696;2023-03-01T14:22:48;15.10;99.90
22968;DHT22;11650;48.106;-1.696;2023-03-01T14:25:36;14.30;99.90
22968;DHT22;11650;48.106;-1.696;2023-03-01T14:30:41;15.70;99.90
22968;DHT22;11650;48.106;-1.696;2023-03-01T14:33:21;15.90;99.90
22968;DHT22;11650;48.106;-1.696;2023-03-01T14:38:42;15.40;99.90
22968;DHT22;11650;48.106;-1.696;2023-03-01T14:41:28;15.60;99.90
22968;DHT22;11650;48.106;-1.696;2023-03-01T14:44:06;15.50;99.90
22968;DHT22;11650;48.106;-1.696;2023-03-01T14:46:40;15.40;99.90
22968;DHT22;11650;48.106;-1.696;2023-03-01T14:49:28;15.30;99.90
22968;DHT22;11650;48.106;-1.696;2023-03-01T14:54:42;14.80;99.90
22968;DHT22;11650;48.106;-1.696;2023-03-01T14:57:23;14.50;99.90
22968;DHT22;11650;48.106;-1.696;2023-03-01T14:59:51;14.00;99.90
22968;DHT22;11650;48.106;-1.696;2023-03-01T15:02:22;14.00;99.90
22968;DHT22;11650;48.106;-1.696;2023-03-01T15:05:00;14.90;99.90
22968;DHT22;11650;48.106;-1.696;2023-03-01T15:07:30;15.00;99.90
22968;DHT22;11650;48.106;-1.696;2023-03-01T15:09:58;15.30;99.90
22968;DHT22;11650;48.106;-1.696;2023-03-01T15:14:56;13.80;99.90
22968;DHT22;11650;48.106;-1.696;2023-03-01T15:19:53;14.80;99.90
22968;DHT22;11650;48.106;-1.696;2023-03-01T15:22:20;15.30;99.90
22968;DHT22;11650;48.106;-1.696;2023-03-01T15:24:49;14.80;99.90
22968;DHT22;11650;48.106;-1.696;2023-03-01T15:27:21;15.00;99.90
22968;DHT22;11650;48.106;-1.696;2023-03-01T15:29:58;15.70;99.90
22968;DHT22;11650;48.106;-1.696;2023-03-01T15:32:28;15.90;99.90
22968;DHT22;11650;48.106;-1.696;2023-03-01T15:34:56;15.50;99.90
22968;DHT22;11650;48.106;-1.696;2023-03-01T15:37:47;16.80;99.90
22968;DHT22;11650;48.106;-1.696;2023-03-01T15:40:25;17.30;99.90
22968;DHT22;11650;48.106;-1.696;2023-03-01T15:43:00;17.00;99.90
22968;DHT22;11650;48.106;-1.696;2023-03-01T15:45:28;16.70;99.90
22968;DHT22;11650;48.106;-1.696;2023-03-01T15:47:59;16.50;99.90
22968;DHT22;11650;48.106;-1.696;2023-03-01T15:50:34;15.80;99.90
22968;DHT22;11650;48.106;-1.696;2023-03-01T15:53:01;15.70;99.90
22968;DHT22;11650;48.106;-1.696;2023-03-01T15:55:31;17.10;99.90
22968;DHT22;11650;48.106;-1.696;2023-03-01T15:58:01;17.70;99.90
22968;DHT22;11650;48.106;-1.696;2023-03-01T16:00:28;17.80;99.90
22968;DHT22;11650;48.106;-1.696;2023-03-01T16:02:54;17.60;99.90
22968;DHT22;11650;48.106;-1.696;2023-03-01T16:05:29;17.40;99.90
22968;DHT22;11650;48.106;-1.696;2023-03-01T16:07:56;17.30;99.90
22968;DHT22;11650;48.106;-1.696;2023-03-01T16:10:22;17.90;99.90
22968;DHT22;11650;48.106;-1.696;2023-03-01T16:12:50;17.40;99.90
22968;DHT22;11650;48.106;-1.696;2023-03-01T16:15:27;17.00;99.90
22968;DHT22;11650;48.106;-1.696;2023-03-01T16:17:53;16.60;99.90
22968;DHT22;11650;48.106;-1.696;2023-03-01T16:20:21;15.80;99.90
22968;DHT22;11650;48.106;-1.696;2023-03-01T16:22:47;15.50;99.90
22968;DHT22;11650;48.106;-1.696;2023-03-01T16:25:14;16.30;99.90
22968;DHT22;11650;48.106;-1.696;2023-03-01T16:27:44;15.30;99.90
22968;DHT22;11650;48.106;-1.696;2023-03-01T16:30:11;15.80;99.90
22968;DHT22;11650;48.106;-1.696;2023-03-01T16:32:41;15.40;99.90
22968;DHT22;11650;48.106;-1.696;2023-03-01T16:35:10;15.10;99.90
22968;DHT22;11650;48.106;-1.696;2023-03-01T16:37:37;15.00;99.90
22968;DHT22;11650;48.106;-1.696;2023-03-01T16:40:04;15.10;99.90
22968;DHT22;11650;48.106;-1.696;2023-03-01T16:42:36;15.60;99.90
22968;DHT22;11650;48.106;-1.696;2023-03-01T16:45:03;14.70;99.90
22968;DHT22;11650;48.106;-1.696;2023-03-01T16:47:29;14.40;99.90
22968;DHT22;11650;48.106;-1.696;2023-03-01T16:49:55;14.10;99.90
22968;DHT22;11650;48.106;-1.696;2023-03-01T16:52:21;13.30;99.90
22968;DHT22;11650;48.106;-1.696;2023-03-01T16:54:47;11.90;99.90
22968;DHT22;11650;48.106;-1.696;2023-03-01T16:57:14;10.60;99.90
22968;DHT22;11650;48.106;-1.696;2023-03-01T16:59:40;10.00;99.90
22968;DHT22;11650;48.106;-1.696;2023-03-01T17:02:08;9.40;99.90
22968;DHT22;11650;48.106;-1.696;2023-03-01T17:04:36;9.20;99.90
22968;DHT22;11650;48.106;-1.696;2023-03-01T17:07:02;9.10;99.90
22968;DHT22;11650;48.106;-1.696;2023-03-01T17:09:28;8.90;99.90
22968;DHT22;11650;48.106;-1.696;2023-03-01T17:11:53;8.60;99.90
22968;DHT22;11650;48.106;-1.696;2023-03-01T17:14:20;8.30;99.90
22968;DHT22;11650;48.106;-1.696;2023-03-01T17:16:46;8.20;99.90
22968;DHT22;11650;48.106;-1.696;2023-03-01T17:19:11;8.00;99.90
22968;DHT22;11650;48.106;-1.696;2023-03-01T17:21:43;7.90;99.90
22968;DHT22;11650;48.106;-1.696;2023-03-01T17:24:09;7.70;99.90
22968;DHT22;11650;48.106;-1.696;2023-03-01T17:26:35;7.50;99.90
22968;DHT22;11650;48.106;-1.696;2023-03-01T17:29:01;7.30;99.90
22968;DHT22;11650;48.106;-1.696;2023-03-01T17:31:28;7.30;99.90
22968;DHT22;11650;48.106;-1.696;2023-03-01T17:33:53;7.30;99.90
22968;DHT22;11650;48.106;-1.696;2023-03-01T17:36:19;7.20;99.90
22968;DHT22;11650;48.106;-1.696;2023-03-01T17:38:45;7.30;99.90
22968;DHT22;11650;48.106;-1.696;2023-03-01T17:41:11;7.20;99.90
22968;DHT22;11650;48.106;-1.696;2023-03-01T17:43:37;7.00;99.90
22968;DHT22;11650;48.106;-1.696;2023-03-01T17:46:03;6.80;99.90
22968;DHT22;11650;48.106;-1.696;2023-03-01T17:48:29;6.70;99.90
22968;DHT22;11650;48.106;-1.696;2023-03-01T17:50:54;6.70;99.90
22968;DHT22;11650;48.106;-1.696;2023-03-01T17:53:20;6.70;99.90
22968;DHT22;11650;48.106;-1.696;2023-03-01T17:55:47;6.50;99.90
22968;DHT22;11650;48.106;-1.696;2023-03-01T17:58:18;6.40;99.90
22968;DHT22;11650;48.106;-1.696;2023-03-01T18:00:48;6.40;99.90
22968;DHT22;11650;48.106;-1.696;2023-03-01T18:03:14;6.50;99.90
22968;DHT22;11650;48.106;-1.696;2023-03-01T18:05:39;6.40;99.90
22968;DHT22;11650;48.106;-1.696;2023-03-01T18:08:05;6.30;99.90
22968;DHT22;11650;48.106;-1.696;2023-03-01T18:10:32;6.20;99.90
22968;DHT22;11650;48.106;-1.696;2023-03-01T18:12:58;6.10;99.90
22968;DHT22;11650;48.106;-1.696;2023-03-01T18:15:24;6.10;99.90
22968;DHT22;11650;48.106;-1.696;2023-03-01T18:17:50;6.10;99.90
22968;DHT22;11650;48.106;-1.696;2023-03-01T18:20:15;6.00;99.90
22968;DHT22;11650;48.106;-1.696;2023-03-01T18:22:42;6.00;99.90
22968;DHT22;11650;48.106;-1.696;2023-03-01T18:25:08;6.00;99.90
22968;DHT22;11650;48.106;-1.696;2023-03-01T18:27:33;6.00;99.90
22968;DHT22;11650;48.106;-1.696;2023-03-01T18:30:02;6.00;99.90
22968;DHT22;11650;48.106;-1.696;2023-03-01T18:32:28;5.90;99.90
22968;DHT22;11650;48.106;-1.696;2023-03-01T18:34:53;5.90;99.90
22968;DHT22;11650;48.106;-1.696;2023-03-01T18:37:19;5.90;99.90
22968;DHT22;11650;48.106;-1.696;2023-03-01T18:39:45;5.80;99.90
22968;DHT22;11650;48.106;-1.696;2023-03-01T18:42:10;5.70;99.90
22968;DHT22;11650;48.106;-1.696;2023-03-01T18:44:36;5.70;99.90
22968;DHT22;11650;48.106;-1.696;2023-03-01T18:47:02;5.70;99.90
22968;DHT22;11650;48.106;-1.696;2023-03-01T18:49:28;5.60;99.90
22968;DHT22;11650;48.106;-1.696;2023-03-01T18:51:54;5.60;99.90
22968;DHT22;11650;48.106;-1.696;2023-03-01T18:54:20;5.60;99.90
22968;DHT22;11650;48.106;-1.696;2023-03-01T18:56:46;5.50;99.90
22968;DHT22;11650;48.106;-1.696;2023-03-01T18:59:12;5.40;99.90
22968;DHT22;11650;48.106;-1.696;2023-03-01T19:01:37;5.40;99.90
22968;DHT22;11650;48.106;-1.696;2023-03-01T19:04:03;5.30;99.90
22968;DHT22;11650;48.106;-1.696;2023-03-01T19:06:31;5.40;99.90
22968;DHT22;11650;48.106;-1.696;2023-03-01T19:08:58;5.40;99.90
22968;DHT22;11650;48.106;-1.696;2023-03-01T20:01:34;4.80;99.90
22968;DHT22;11650;48.106;-1.696;2023-03-01T20:04:02;4.80;99.90